Plain, Washington
Current Conditions -  °F | °C
As of 4:55 PM on Monday 24 Nov 2014 (Local Time) from KEAT Reporting Station
Overcast Overcast  
Wind Chill: 37°   Ceiling: 7000
Heat Index: 41°   Visibility: 10mi
Dew Point: 31°   Wind: 6mph
Humidity: 67%   Direction: 100°E
Pressure: 30.18"   Gusts: NA
Location:  47.7866°N, 120.856°W
Report Text: KEAT 250055Z AUTO 10005KT 10SM BKN070 OVC080 05/M01 A3018 RMK AO2 SLP226 T00501006
Loading
Personal Weather Stations






























Interactive Weather Map New forecast layout! Learn more

10-Day Weather Forecast

Advertisements
Track Severe Weather on mobile